sensor_id;sensor_type;location;lat;lon;timestamp;temperature;humidity
67157;SHT31;54086;50.126;8.710;2023-06-26T00:00:25;24.00;61.03
67157;SHT31;54086;50.126;8.710;2023-06-26T00:02:51;23.84;61.47
67157;SHT31;54086;50.126;8.710;2023-06-26T00:05:16;23.85;61.52
67157;SHT31;54086;50.126;8.710;2023-06-26T00:07:42;23.91;61.42
67157;SHT31;54086;50.126;8.710;2023-06-26T00:10:08;23.84;61.64
67157;SHT31;54086;50.126;8.710;2023-06-26T00:12:33;23.63;62.22
67157;SHT31;54086;50.126;8.710;2023-06-26T00:14:59;23.56;62.40
67157;SHT31;54086;50.126;8.710;2023-06-26T00:17:24;23.58;62.52
67157;SHT31;54086;50.126;8.710;2023-06-26T00:19:50;23.54;62.61
67157;SHT31;54086;50.126;8.710;2023-06-26T00:22:16;23.44;62.86
67157;SHT31;54086;50.126;8.710;2023-06-26T00:24:41;23.39;63.20
67157;SHT31;54086;50.126;8.710;2023-06-26T00:27:07;23.31;63.37
67157;SHT31;54086;50.126;8.710;2023-06-26T00:29:32;23.22;63.79
67157;SHT31;54086;50.126;8.710;2023-06-26T00:31:58;23.17;64.04
67157;SHT31;54086;50.126;8.710;2023-06-26T00:34:23;23.20;64.01
67157;SHT31;54086;50.126;8.710;2023-06-26T00:36:49;23.03;64.56
67157;SHT31;54086;50.126;8.710;2023-06-26T00:39:15;23.09;64.41
67157;SHT31;54086;50.126;8.710;2023-06-26T00:41:41;22.99;64.81
67157;SHT31;54086;50.126;8.710;2023-06-26T00:44:07;22.99;64.91
67157;SHT31;54086;50.126;8.710;2023-06-26T00:46:33;22.94;65.13
67157;SHT31;54086;50.126;8.710;2023-06-26T00:49:00;22.84;65.42
67157;SHT31;54086;50.126;8.710;2023-06-26T00:51:29;22.85;65.70
67157;SHT31;54086;50.126;8.710;2023-06-26T00:53:54;22.66;66.13
67157;SHT31;54086;50.126;8.710;2023-06-26T00:56:20;22.84;65.69
67157;SHT31;54086;50.126;8.710;2023-06-26T00:58:45;22.75;66.07
67157;SHT31;54086;50.126;8.710;2023-06-26T01:01:11;22.71;66.29
67157;SHT31;54086;50.126;8.710;2023-06-26T01:03:41;22.52;66.88
67157;SHT31;54086;50.126;8.710;2023-06-26T01:06:09;22.47;67.03
67157;SHT31;54086;50.126;8.710;2023-06-26T01:08:38;22.51;66.94
67157;SHT31;54086;50.126;8.710;2023-06-26T01:11:04;22.34;67.48
67157;SHT31;54086;50.126;8.710;2023-06-26T01:13:29;22.34;67.61
67157;SHT31;54086;50.126;8.710;2023-06-26T01:15:57;22.30;67.78
67157;SHT31;54086;50.126;8.710;2023-06-26T01:18:23;22.33;67.64
67157;SHT31;54086;50.126;8.710;2023-06-26T01:20:50;22.28;67.90
67157;SHT31;54086;50.126;8.710;2023-06-26T01:23:17;22.28;68.13
67157;SHT31;54086;50.126;8.710;2023-06-26T01:28:20;21.90;69.11
67157;SHT31;54086;50.126;8.710;2023-06-26T01:30:46;21.90;69.15
67157;SHT31;54086;50.126;8.710;2023-06-26T01:33:13;21.90;69.29
67157;SHT31;54086;50.126;8.710;2023-06-26T01:35:39;21.89;69.42
67157;SHT31;54086;50.126;8.710;2023-06-26T01:38:31;21.89;69.21
67157;SHT31;54086;50.126;8.710;2023-06-26T01:40:57;21.87;69.40
67157;SHT31;54086;50.126;8.710;2023-06-26T01:46:33;21.76;69.78
67157;SHT31;54086;50.126;8.710;2023-06-26T01:52:07;21.73;70.05
67157;SHT31;54086;50.126;8.710;2023-06-26T01:54:38;21.69;70.11
67157;SHT31;54086;50.126;8.710;2023-06-26T01:57:04;21.65;70.23
67157;SHT31;54086;50.126;8.710;2023-06-26T01:59:31;21.63;70.45
67157;SHT31;54086;50.126;8.710;2023-06-26T02:01:57;21.63;70.53
67157;SHT31;54086;50.126;8.710;2023-06-26T02:04:22;21.67;70.34
67157;SHT31;54086;50.126;8.710;2023-06-26T02:06:48;21.67;70.33
67157;SHT31;54086;50.126;8.710;2023-06-26T02:09:13;21.52;70.80
67157;SHT31;54086;50.126;8.710;2023-06-26T02:11:39;21.53;70.60
67157;SHT31;54086;50.126;8.710;2023-06-26T02:14:04;21.50;70.89
67157;SHT31;54086;50.126;8.710;2023-06-26T02:16:29;21.29;71.38
67157;SHT31;54086;50.126;8.710;2023-06-26T02:18:55;21.41;71.12
67157;SHT31;54086;50.126;8.710;2023-06-26T02:21:22;21.39;71.22
67157;SHT31;54086;50.126;8.710;2023-06-26T02:23:48;21.32;71.66
67157;SHT31;54086;50.126;8.710;2023-06-26T02:26:13;21.34;71.63
67157;SHT31;54086;50.126;8.710;2023-06-26T02:28:39;21.37;71.29
67157;SHT31;54086;50.126;8.710;2023-06-26T02:31:04;21.37;71.41
67157;SHT31;54086;50.126;8.710;2023-06-26T02:33:30;21.29;71.53
67157;SHT31;54086;50.126;8.710;2023-06-26T02:35:55;21.34;71.48
67157;SHT31;54086;50.126;8.710;2023-06-26T02:38:21;21.19;71.90
67157;SHT31;54086;50.126;8.710;2023-06-26T02:40:46;21.19;71.93
67157;SHT31;54086;50.126;8.710;2023-06-26T02:43:11;21.05;72.53
67157;SHT31;54086;50.126;8.710;2023-06-26T02:45:37;21.00;72.55
67157;SHT31;54086;50.126;8.710;2023-06-26T02:48:02;21.01;72.54
67157;SHT31;54086;50.126;8.710;2023-06-26T02:50:28;20.98;72.74
67157;SHT31;54086;50.126;8.710;2023-06-26T02:52:53;20.97;72.86
67157;SHT31;54086;50.126;8.710;2023-06-26T02:55:19;20.90;72.92
67157;SHT31;54086;50.126;8.710;2023-06-26T02:57:46;20.95;72.72
67157;SHT31;54086;50.126;8.710;2023-06-26T03:00:12;20.88;72.92
67157;SHT31;54086;50.126;8.710;2023-06-26T03:02:38;20.98;72.68
67157;SHT31;54086;50.126;8.710;2023-06-26T03:05:04;20.98;72.72
67157;SHT31;54086;50.126;8.710;2023-06-26T03:07:29;20.90;73.08
67157;SHT31;54086;50.126;8.710;2023-06-26T03:09:55;20.85;72.96
67157;SHT31;54086;50.126;8.710;2023-06-26T03:12:20;20.67;73.63
67157;SHT31;54086;50.126;8.710;2023-06-26T03:14:46;20.60;74.08
67157;SHT31;54086;50.126;8.710;2023-06-26T03:17:11;20.74;73.59
67157;SHT31;54086;50.126;8.710;2023-06-26T03:19:37;20.78;73.49
67157;SHT31;54086;50.126;8.710;2023-06-26T03:22:02;20.63;74.12
67157;SHT31;54086;50.126;8.710;2023-06-26T03:24:28;20.51;74.39
67157;SHT31;54086;50.126;8.710;2023-06-26T03:26:54;20.40;74.71
67157;SHT31;54086;50.126;8.710;2023-06-26T03:29:19;20.40;74.98
67157;SHT31;54086;50.126;8.710;2023-06-26T03:31:44;20.39;74.98
67157;SHT31;54086;50.126;8.710;2023-06-26T03:34:10;20.34;74.89
67157;SHT31;54086;50.126;8.710;2023-06-26T03:36:35;20.40;74.96
67157;SHT31;54086;50.126;8.710;2023-06-26T03:39:01;20.26;75.54
67157;SHT31;54086;50.126;8.710;2023-06-26T03:41:30;20.19;75.54
67157;SHT31;54086;50.126;8.710;2023-06-26T03:43:58;20.19;75.56
67157;SHT31;54086;50.126;8.710;2023-06-26T03:46:25;20.18;75.68
67157;SHT31;54086;50.126;8.710;2023-06-26T03:48:50;20.39;75.10
67157;SHT31;54086;50.126;8.710;2023-06-26T03:51:16;20.26;75.52
67157;SHT31;54086;50.126;8.710;2023-06-26T03:53:41;20.33;75.43
67157;SHT31;54086;50.126;8.710;2023-06-26T03:56:07;20.36;75.28
67157;SHT31;54086;50.126;8.710;2023-06-26T03:58:32;20.36;75.43
67157;SHT31;54086;50.126;8.710;2023-06-26T04:00:57;20.20;75.79
67157;SHT31;54086;50.126;8.710;2023-06-26T04:03:23;20.19;75.81
67157;SHT31;54086;50.126;8.710;2023-06-26T04:05:49;20.25;75.49
67157;SHT31;54086;50.126;8.710;2023-06-26T04:08:14;20.30;75.58
67157;SHT31;54086;50.126;8.710;2023-06-26T04:10:40;20.29;75.56
67157;SHT31;54086;50.126;8.710;2023-06-26T04:13:05;20.39;75.29
67157;SHT31;54086;50.126;8.710;2023-06-26T04:15:30;20.39;75.34
67157;SHT31;54086;50.126;8.710;2023-06-26T04:17:56;20.43;75.07
67157;SHT31;54086;50.126;8.710;2023-06-26T04:20:21;20.36;75.52
67157;SHT31;54086;50.126;8.710;2023-06-26T04:22:47;20.43;75.35
67157;SHT31;54086;50.126;8.710;2023-06-26T04:25:12;20.53;75.25
67157;SHT31;54086;50.126;8.710;2023-06-26T04:27:38;20.34;75.76
67157;SHT31;54086;50.126;8.710;2023-06-26T04:30:03;20.26;75.80
67157;SHT31;54086;50.126;8.710;2023-06-26T04:32:30;20.33;75.90
67157;SHT31;54086;50.126;8.710;2023-06-26T04:34:55;20.41;75.79
67157;SHT31;54086;50.126;8.710;2023-06-26T04:37:21;20.23;76.24
67157;SHT31;54086;50.126;8.710;2023-06-26T04:39:47;20.46;76.02
67157;SHT31;54086;50.126;8.710;2023-06-26T04:42:12;20.53;75.52
67157;SHT31;54086;50.126;8.710;2023-06-26T04:44:38;20.49;75.72
67157;SHT31;54086;50.126;8.710;2023-06-26T04:47:04;20.57;75.65
67157;SHT31;54086;50.126;8.710;2023-06-26T04:49:29;20.61;75.54
67157;SHT31;54086;50.126;8.710;2023-06-26T04:51:55;20.67;75.49
67157;SHT31;54086;50.126;8.710;2023-06-26T04:54:21;20.67;75.32
67157;SHT31;54086;50.126;8.710;2023-06-26T04:56:47;20.78;75.14
67157;SHT31;54086;50.126;8.710;2023-06-26T04:59:13;20.77;75.36
67157;SHT31;54086;50.126;8.710;2023-06-26T05:01:40;20.76;75.45
67157;SHT31;54086;50.126;8.710;2023-06-26T05:04:06;20.81;75.35
67157;SHT31;54086;50.126;8.710;2023-06-26T05:06:31;20.88;75.24
67157;SHT31;54086;50.126;8.710;2023-06-26T05:08:57;21.05;74.81
67157;SHT31;54086;50.126;8.710;2023-06-26T05:11:22;21.11;74.57
67157;SHT31;54086;50.126;8.710;2023-06-26T05:13:49;21.27;74.25
67157;SHT31;54086;50.126;8.710;2023-06-26T05:16:15;21.25;74.46
67157;SHT31;54086;50.126;8.710;2023-06-26T05:18:40;21.34;73.76
67157;SHT31;54086;50.126;8.710;2023-06-26T05:21:06;21.46;73.12
67157;SHT31;54086;50.126;8.710;2023-06-26T05:23:32;21.43;71.73
67157;SHT31;54086;50.126;8.710;2023-06-26T05:26:02;21.46;70.71
67157;SHT31;54086;50.126;8.710;2023-06-26T05:28:29;21.49;70.32
67157;SHT31;54086;50.126;8.710;2023-06-26T05:30:56;21.63;69.94
67157;SHT31;54086;50.126;8.710;2023-06-26T05:33:24;21.67;69.60
67157;SHT31;54086;50.126;8.710;2023-06-26T05:35:52;21.80;69.81
67157;SHT31;54086;50.126;8.710;2023-06-26T05:38:18;21.87;69.37
67157;SHT31;54086;50.126;8.710;2023-06-26T05:40:44;21.86;69.30
67157;SHT31;54086;50.126;8.710;2023-06-26T05:43:10;21.87;69.04
67157;SHT31;54086;50.126;8.710;2023-06-26T05:45:35;21.96;69.16
67157;SHT31;54086;50.126;8.710;2023-06-26T05:48:00;22.03;68.93
67157;SHT31;54086;50.126;8.710;2023-06-26T05:50:27;22.14;68.33
67157;SHT31;54086;50.126;8.710;2023-06-26T05:52:53;22.36;67.77
67157;SHT31;54086;50.126;8.710;2023-06-26T05:55:19;22.36;67.38
67157;SHT31;54086;50.126;8.710;2023-06-26T05:57:45;22.33;67.52
67157;SHT31;54086;50.126;8.710;2023-06-26T06:00:12;22.40;67.34
67157;SHT31;54086;50.126;8.710;2023-06-26T06:02:38;22.41;67.16
67157;SHT31;54086;50.126;8.710;2023-06-26T06:05:04;22.44;67.40
67157;SHT31;54086;50.126;8.710;2023-06-26T06:07:32;22.48;67.24
67157;SHT31;54086;50.126;8.710;2023-06-26T06:09:58;22.72;66.79
67157;SHT31;54086;50.126;8.710;2023-06-26T06:12:23;22.81;66.79
67157;SHT31;54086;50.126;8.710;2023-06-26T06:14:49;22.84;66.74
67157;SHT31;54086;50.126;8.710;2023-06-26T06:17:14;22.69;66.96
67157;SHT31;54086;50.126;8.710;2023-06-26T06:19:39;22.89;66.79
67157;SHT31;54086;50.126;8.710;2023-06-26T06:22:05;23.03;66.46
67157;SHT31;54086;50.126;8.710;2023-06-26T06:24:30;23.19;66.18
67157;SHT31;54086;50.126;8.710;2023-06-26T06:26:55;23.15;66.22
67157;SHT31;54086;50.126;8.710;2023-06-26T06:29:21;23.28;65.24
67157;SHT31;54086;50.126;8.710;2023-06-26T06:31:46;23.47;65.10
67157;SHT31;54086;50.126;8.710;2023-06-26T06:34:12;23.56;64.94
67157;SHT31;54086;50.126;8.710;2023-06-26T06:36:38;23.73;64.73
67157;SHT31;54086;50.126;8.710;2023-06-26T06:39:03;23.89;64.58
67157;SHT31;54086;50.126;8.710;2023-06-26T06:41:29;23.61;64.46
67157;SHT31;54086;50.126;8.710;2023-06-26T06:43:54;23.78;64.43
67157;SHT31;54086;50.126;8.710;2023-06-26T06:46:20;23.65;64.33
67157;SHT31;54086;50.126;8.710;2023-06-26T06:48:45;23.81;64.45
67157;SHT31;54086;50.126;8.710;2023-06-26T06:51:12;23.93;63.95
67157;SHT31;54086;50.126;8.710;2023-06-26T06:53:37;23.85;63.78
67157;SHT31;54086;50.126;8.710;2023-06-26T06:56:03;24.01;63.89
67157;SHT31;54086;50.126;8.710;2023-06-26T06:58:28;23.88;63.75
67157;SHT31;54086;50.126;8.710;2023-06-26T07:00:54;23.97;63.52
67157;SHT31;54086;50.126;8.710;2023-06-26T07:03:19;23.98;63.17
67157;SHT31;54086;50.126;8.710;2023-06-26T07:05:47;24.24;62.53
67157;SHT31;54086;50.126;8.710;2023-06-26T07:08:13;24.40;61.92
67157;SHT31;54086;50.126;8.710;2023-06-26T07:10:38;24.46;61.86
67157;SHT31;54086;50.126;8.710;2023-06-26T07:13:04;24.67;61.38
67157;SHT31;54086;50.126;8.710;2023-06-26T07:15:30;24.66;61.00
67157;SHT31;54086;50.126;8.710;2023-06-26T07:17:56;24.59;60.81
67157;SHT31;54086;50.126;8.710;2023-06-26T07:20:21;24.74;60.64
67157;SHT31;54086;50.126;8.710;2023-06-26T07:22:48;24.60;60.65
67157;SHT31;54086;50.126;8.710;2023-06-26T07:25:13;24.69;60.68
67157;SHT31;54086;50.126;8.710;2023-06-26T07:27:40;24.74;60.61
67157;SHT31;54086;50.126;8.710;2023-06-26T07:30:06;24.94;60.31
67157;SHT31;54086;50.126;8.710;2023-06-26T07:32:34;25.08;59.84
67157;SHT31;54086;50.126;8.710;2023-06-26T07:34:59;25.32;59.47
67157;SHT31;54086;50.126;8.710;2023-06-26T07:37:24;25.31;59.84
67157;SHT31;54086;50.126;8.710;2023-06-26T07:39:50;25.25;59.59
67157;SHT31;54086;50.126;8.710;2023-06-26T07:42:15;25.18;59.90
67157;SHT31;54086;50.126;8.710;2023-06-26T07:44:42;25.37;59.31
67157;SHT31;54086;50.126;8.710;2023-06-26T07:47:07;25.24;59.92
67157;SHT31;54086;50.126;8.710;2023-06-26T07:49:33;25.42;59.79
67157;SHT31;54086;50.126;8.710;2023-06-26T07:51:58;25.39;59.80
67157;SHT31;54086;50.126;8.710;2023-06-26T07:54:24;25.41;59.55
67157;SHT31;54086;50.126;8.710;2023-06-26T07:57:03;25.49;59.28
67157;SHT31;54086;50.126;8.710;2023-06-26T07:59:32;25.49;59.11
67157;SHT31;54086;50.126;8.710;2023-06-26T08:01:58;25.76;58.84
67157;SHT31;54086;50.126;8.710;2023-06-26T08:04:26;25.59;59.44
67157;SHT31;54086;50.126;8.710;2023-06-26T08:06:56;25.85;58.57
67157;SHT31;54086;50.126;8.710;2023-06-26T08:09:23;26.03;58.45
67157;SHT31;54086;50.126;8.710;2023-06-26T08:11:49;26.10;57.97
67157;SHT31;54086;50.126;8.710;2023-06-26T08:14:15;26.41;57.52
67157;SHT31;54086;50.126;8.710;2023-06-26T08:16:42;26.75;56.48
67157;SHT31;54086;50.126;8.710;2023-06-26T08:19:09;27.28;55.61
67157;SHT31;54086;50.126;8.710;2023-06-26T08:21:34;27.20;54.48
67157;SHT31;54086;50.126;8.710;2023-06-26T08:24:00;27.19;54.47
67157;SHT31;54086;50.126;8.710;2023-06-26T08:26:25;27.12;54.42
67157;SHT31;54086;50.126;8.710;2023-06-26T08:28:51;27.01;54.69
67157;SHT31;54086;50.126;8.710;2023-06-26T08:31:16;26.94;54.99
67157;SHT31;54086;50.126;8.710;2023-06-26T08:33:42;27.32;54.75
67157;SHT31;54086;50.126;8.710;2023-06-26T08:36:08;27.76;54.24
67157;SHT31;54086;50.126;8.710;2023-06-26T08:38:33;27.80;53.58
67157;SHT31;54086;50.126;8.710;2023-06-26T08:40:59;27.43;53.98
67157;SHT31;54086;50.126;8.710;2023-06-26T08:43:25;27.66;53.91
67157;SHT31;54086;50.126;8.710;2023-06-26T08:45:52;27.76;53.07
67157;SHT31;54086;50.126;8.710;2023-06-26T08:48:18;27.93;52.95
67157;SHT31;54086;50.126;8.710;2023-06-26T08:50:44;28.35;52.28
67157;SHT31;54086;50.126;8.710;2023-06-26T08:53:18;28.58;51.86
67157;SHT31;54086;50.126;8.710;2023-06-26T08:55:49;29.02;51.14
67157;SHT31;54086;50.126;8.710;2023-06-26T08:58:16;28.97;50.86
67157;SHT31;54086;50.126;8.710;2023-06-26T09:00:42;29.44;50.23
67157;SHT31;54086;50.126;8.710;2023-06-26T09:03:09;29.79;49.70
67157;SHT31;54086;50.126;8.710;2023-06-26T09:05:35;29.85;49.75
67157;SHT31;54086;50.126;8.710;2023-06-26T09:08:01;30.01;49.71
67157;SHT31;54086;50.126;8.710;2023-06-26T09:10:27;30.30;48.70
67157;SHT31;54086;50.126;8.710;2023-06-26T09:12:55;29.55;50.41
67157;SHT31;54086;50.126;8.710;2023-06-26T09:15:22;29.43;50.48
67157;SHT31;54086;50.126;8.710;2023-06-26T09:17:48;28.96;51.64
67157;SHT31;54086;50.126;8.710;2023-06-26T09:20:14;29.11;51.50
67157;SHT31;54086;50.126;8.710;2023-06-26T09:22:42;28.96;51.34
67157;SHT31;54086;50.126;8.710;2023-06-26T09:25:09;29.65;50.08
67157;SHT31;54086;50.126;8.710;2023-06-26T09:27:35;30.35;48.57
67157;SHT31;54086;50.126;8.710;2023-06-26T09:30:05;30.54;48.48
67157;SHT31;54086;50.126;8.710;2023-06-26T09:32:34;30.63;48.79
67157;SHT31;54086;50.126;8.710;2023-06-26T09:35:02;30.36;49.32
67157;SHT31;54086;50.126;8.710;2023-06-26T09:37:29;30.95;48.58
67157;SHT31;54086;50.126;8.710;2023-06-26T09:39:55;31.29;48.04
67157;SHT31;54086;50.126;8.710;2023-06-26T09:42:23;31.49;47.92
67157;SHT31;54086;50.126;8.710;2023-06-26T09:44:48;31.49;47.56
67157;SHT31;54086;50.126;8.710;2023-06-26T09:47:19;31.21;47.88
67157;SHT31;54086;50.126;8.710;2023-06-26T09:49:45;31.36;47.78
67157;SHT31;54086;50.126;8.710;2023-06-26T09:52:18;31.39;47.50
67157;SHT31;54086;50.126;8.710;2023-06-26T09:54:45;31.25;47.59
67157;SHT31;54086;50.126;8.710;2023-06-26T09:57:17;31.41;47.03
67157;SHT31;54086;50.126;8.710;2023-06-26T09:59:46;30.99;47.86
67157;SHT31;54086;50.126;8.710;2023-06-26T10:02:11;30.98;47.92
67157;SHT31;54086;50.126;8.710;2023-06-26T10:04:38;31.36;47.62
67157;SHT31;54086;50.126;8.710;2023-06-26T10:07:12;31.35;47.57
67157;SHT31;54086;50.126;8.710;2023-06-26T10:09:41;31.18;47.98
67157;SHT31;54086;50.126;8.710;2023-06-26T10:12:28;30.81;48.73
67157;SHT31;54086;50.126;8.710;2023-06-26T10:14:56;31.70;48.13
67157;SHT31;54086;50.126;8.710;2023-06-26T10:17:24;31.77;47.87
67157;SHT31;54086;50.126;8.710;2023-06-26T10:19:50;31.72;47.57
67157;SHT31;54086;50.126;8.710;2023-06-26T10:22:20;31.45;48.46
67157;SHT31;54086;50.126;8.710;2023-06-26T10:24:47;31.02;48.77
67157;SHT31;54086;50.126;8.710;2023-06-26T10:27:19;30.90;48.85
67157;SHT31;54086;50.126;8.710;2023-06-26T10:29:47;30.99;49.02
67157;SHT31;54086;50.126;8.710;2023-06-26T10:32:15;30.78;49.22
67157;SHT31;54086;50.126;8.710;2023-06-26T10:34:42;30.67;49.57
67157;SHT31;54086;50.126;8.710;2023-06-26T10:37:08;30.56;49.83
67157;SHT31;54086;50.126;8.710;2023-06-26T10:39:47;30.99;49.15
67157;SHT31;54086;50.126;8.710;2023-06-26T10:42:17;30.60;49.33
67157;SHT31;54086;50.126;8.710;2023-06-26T10:44:45;30.56;49.65
67157;SHT31;54086;50.126;8.710;2023-06-26T10:47:12;30.67;49.42
67157;SHT31;54086;50.126;8.710;2023-06-26T10:49:53;31.11;48.47
67157;SHT31;54086;50.126;8.710;2023-06-26T10:52:19;31.69;47.32
67157;SHT31;54086;50.126;8.710;2023-06-26T10:54:44;31.73;47.21
67157;SHT31;54086;50.126;8.710;2023-06-26T10:57:10;32.33;46.24
67157;SHT31;54086;50.126;8.710;2023-06-26T10:59:39;32.60;45.42
67157;SHT31;54086;50.126;8.710;2023-06-26T11:02:06;31.45;46.57
67157;SHT31;54086;50.126;8.710;2023-06-26T11:04:45;31.29;46.56
67157;SHT31;54086;50.126;8.710;2023-06-26T11:07:20;30.35;47.82
67157;SHT31;54086;50.126;8.710;2023-06-26T11:12:45;30.87;47.44
67157;SHT31;54086;50.126;8.710;2023-06-26T11:15:17;31.05;46.90
67157;SHT31;54086;50.126;8.710;2023-06-26T11:17:44;31.08;46.98
67157;SHT31;54086;50.126;8.710;2023-06-26T11:20:15;31.59;46.21
67157;SHT31;54086;50.126;8.710;2023-06-26T11:22:44;31.97;45.58
67157;SHT31;54086;50.126;8.710;2023-06-26T11:25:10;32.34;45.33
67157;SHT31;54086;50.126;8.710;2023-06-26T11:27:43;32.57;45.35
67157;SHT31;54086;50.126;8.710;2023-06-26T11:30:12;32.45;45.64
67157;SHT31;54086;50.126;8.710;2023-06-26T11:32:49;32.67;45.47
67157;SHT31;54086;50.126;8.710;2023-06-26T11:35:25;32.70;45.66
67157;SHT31;54086;50.126;8.710;2023-06-26T11:37:59;32.83;44.59
67157;SHT31;54086;50.126;8.710;2023-06-26T11:40:29;32.09;45.72
67157;SHT31;54086;50.126;8.710;2023-06-26T11:43:00;32.95;44.76
67157;SHT31;54086;50.126;8.710;2023-06-26T11:45:33;33.18;44.47
67157;SHT31;54086;50.126;8.710;2023-06-26T11:48:00;33.51;44.37
67157;SHT31;54086;50.126;8.710;2023-06-26T11:50:26;33.78;44.21
67157;SHT31;54086;50.126;8.710;2023-06-26T11:52:57;33.51;44.74
67157;SHT31;54086;50.126;8.710;2023-06-26T11:55:23;34.22;43.65
67157;SHT31;54086;50.126;8.710;2023-06-26T11:57:50;32.41;46.20
67157;SHT31;54086;50.126;8.710;2023-06-26T12:00:18;32.76;45.65
67157;SHT31;54086;50.126;8.710;2023-06-26T12:02:46;33.29;45.31
67157;SHT31;54086;50.126;8.710;2023-06-26T12:05:16;33.77;44.13
67157;SHT31;54086;50.126;8.710;2023-06-26T12:07:51;32.94;45.25
67157;SHT31;54086;50.126;8.710;2023-06-26T12:10:17;33.12;44.75
67157;SHT31;54086;50.126;8.710;2023-06-26T12:12:45;32.76;45.60
67157;SHT31;54086;50.126;8.710;2023-06-26T12:15:15;33.51;44.33
67157;SHT31;54086;50.126;8.710;2023-06-26T12:17:40;33.36;44.48
67157;SHT31;54086;50.126;8.710;2023-06-26T12:20:18;33.05;44.60
67157;SHT31;54086;50.126;8.710;2023-06-26T12:22:46;32.65;45.47
67157;SHT31;54086;50.126;8.710;2023-06-26T12:25:12;32.10;45.69
67157;SHT31;54086;50.126;8.710;2023-06-26T12:27:38;31.80;46.60
67157;SHT31;54086;50.126;8.710;2023-06-26T12:30:04;31.08;47.47
67157;SHT31;54086;50.126;8.710;2023-06-26T12:32:30;31.89;47.56
67157;SHT31;54086;50.126;8.710;2023-06-26T12:34:56;32.61;46.72
67157;SHT31;54086;50.126;8.710;2023-06-26T12:37:24;31.77;48.06
67157;SHT31;54086;50.126;8.710;2023-06-26T12:39:51;31.34;48.87
67157;SHT31;54086;50.126;8.710;2023-06-26T12:42:21;32.31;47.77
67157;SHT31;54086;50.126;8.710;2023-06-26T12:44:49;33.02;46.22
67157;SHT31;54086;50.126;8.710;2023-06-26T12:47:24;33.02;45.88
67157;SHT31;54086;50.126;8.710;2023-06-26T12:49:51;33.01;46.16
67157;SHT31;54086;50.126;8.710;2023-06-26T12:52:17;33.29;45.99
67157;SHT31;54086;50.126;8.710;2023-06-26T12:54:45;32.62;46.51
67157;SHT31;54086;50.126;8.710;2023-06-26T12:57:12;32.31;47.57
67157;SHT31;54086;50.126;8.710;2023-06-26T12:59:39;31.98;47.90
67157;SHT31;54086;50.126;8.710;2023-06-26T13:02:05;31.53;48.85
67157;SHT31;54086;50.126;8.710;2023-06-26T13:04:32;30.77;50.29
67157;SHT31;54086;50.126;8.710;2023-06-26T13:06:58;30.59;50.79
67157;SHT31;54086;50.126;8.710;2023-06-26T13:09:24;31.02;50.10
67157;SHT31;54086;50.126;8.710;2023-06-26T13:11:50;31.84;48.69
67157;SHT31;54086;50.126;8.710;2023-06-26T13:14:16;32.06;48.06
67157;SHT31;54086;50.126;8.710;2023-06-26T13:16:42;31.22;48.65
67157;SHT31;54086;50.126;8.710;2023-06-26T13:19:07;31.50;48.75
67157;SHT31;54086;50.126;8.710;2023-06-26T13:21:34;31.69;48.23
67157;SHT31;54086;50.126;8.710;2023-06-26T13:23:59;32.51;46.85
67157;SHT31;54086;50.126;8.710;2023-06-26T13:26:25;32.75;46.74
67157;SHT31;54086;50.126;8.710;2023-06-26T13:28:52;32.75;46.44
67157;SHT31;54086;50.126;8.710;2023-06-26T13:31:17;32.42;46.80
67157;SHT31;54086;50.126;8.710;2023-06-26T13:33:44;32.21;47.24
67157;SHT31;54086;50.126;8.710;2023-06-26T13:36:10;32.57;46.74
67157;SHT31;54086;50.126;8.710;2023-06-26T13:38:36;32.10;47.01
67157;SHT31;54086;50.126;8.710;2023-06-26T13:41:01;32.00;47.13
67157;SHT31;54086;50.126;8.710;2023-06-26T13:43:27;32.48;46.48
67157;SHT31;54086;50.126;8.710;2023-06-26T13:45:53;32.02;46.16
67157;SHT31;54086;50.126;8.710;2023-06-26T13:48:19;32.42;45.84
67157;SHT31;54086;50.126;8.710;2023-06-26T13:50:46;32.70;45.13
67157;SHT31;54086;50.126;8.710;2023-06-26T13:53:12;32.38;45.59
67157;SHT31;54086;50.126;8.710;2023-06-26T13:55:38;32.51;45.57
67157;SHT31;54086;50.126;8.710;2023-06-26T13:58:10;31.76;46.97
67157;SHT31;54086;50.126;8.710;2023-06-26T14:00:36;31.29;47.59
67157;SHT31;54086;50.126;8.710;2023-06-26T14:03:06;31.26;47.59
67157;SHT31;54086;50.126;8.710;2023-06-26T14:05:35;32.02;46.32
67157;SHT31;54086;50.126;8.710;2023-06-26T14:08:03;32.64;45.29
67157;SHT31;54086;50.126;8.710;2023-06-26T14:10:29;32.89;45.09
67157;SHT31;54086;50.126;8.710;2023-06-26T14:12:55;32.67;44.14
67157;SHT31;54086;50.126;8.710;2023-06-26T14:15:20;33.05;42.55
67157;SHT31;54086;50.126;8.710;2023-06-26T14:17:46;32.62;42.62
67157;SHT31;54086;50.126;8.710;2023-06-26T14:20:15;32.76;43.00
67157;SHT31;54086;50.126;8.710;2023-06-26T14:22:44;32.55;43.60
67157;SHT31;54086;50.126;8.710;2023-06-26T14:25:11;32.34;44.19
67157;SHT31;54086;50.126;8.710;2023-06-26T14:27:38;32.55;43.70
67157;SHT31;54086;50.126;8.710;2023-06-26T14:30:05;32.67;43.31
67157;SHT31;54086;50.126;8.710;2023-06-26T14:32:32;31.73;44.44
67157;SHT31;54086;50.126;8.710;2023-06-26T14:34:58;30.63;45.85
67157;SHT31;54086;50.126;8.710;2023-06-26T14:37:23;30.40;46.20
67157;SHT31;54086;50.126;8.710;2023-06-26T14:39:49;30.19;46.37
67157;SHT31;54086;50.126;8.710;2023-06-26T14:42:15;30.67;45.57
67157;SHT31;54086;50.126;8.710;2023-06-26T14:44:40;30.98;45.31
67157;SHT31;54086;50.126;8.710;2023-06-26T14:47:06;30.61;44.83
67157;SHT31;54086;50.126;8.710;2023-06-26T14:49:31;30.83;44.75
67157;SHT31;54086;50.126;8.710;2023-06-26T14:51:57;30.85;44.03
67157;SHT31;54086;50.126;8.710;2023-06-26T14:54:22;31.45;43.66
67157;SHT31;54086;50.126;8.710;2023-06-26T14:56:48;31.21;43.53
67157;SHT31;54086;50.126;8.710;2023-06-26T14:59:13;31.15;43.15
67157;SHT31;54086;50.126;8.710;2023-06-26T15:01:41;30.67;43.17
67157;SHT31;54086;50.126;8.710;2023-06-26T15:04:06;30.60;43.59
67157;SHT31;54086;50.126;8.710;2023-06-26T15:06:32;31.10;42.94
67157;SHT31;54086;50.126;8.710;2023-06-26T15:08:58;31.29;42.33
67157;SHT31;54086;50.126;8.710;2023-06-26T15:11:24;31.14;42.40
67157;SHT31;54086;50.126;8.710;2023-06-26T15:13:49;31.07;42.12
67157;SHT31;54086;50.126;8.710;2023-06-26T15:16:15;31.47;41.75
67157;SHT31;54086;50.126;8.710;2023-06-26T15:18:41;30.98;41.82
67157;SHT31;54086;50.126;8.710;2023-06-26T15:21:07;30.74;42.49
67157;SHT31;54086;50.126;8.710;2023-06-26T15:23:35;29.96;43.63
67157;SHT31;54086;50.126;8.710;2023-06-26T15:26:00;29.88;43.68
67157;SHT31;54086;50.126;8.710;2023-06-26T15:28:26;30.09;43.91
67157;SHT31;54086;50.126;8.710;2023-06-26T15:30:52;29.16;43.77
67157;SHT31;54086;50.126;8.710;2023-06-26T15:33:17;29.33;44.05
67157;SHT31;54086;50.126;8.710;2023-06-26T15:35:43;29.93;42.84
67157;SHT31;54086;50.126;8.710;2023-06-26T15:38:08;30.22;41.94